| time (UTC) | temp F | wind direction | speed MPH | gust MPH | rain 1hr in | rain 24hr in | rain mn in | humidity % | barometer mb |
| 20260505230106 | 80 | 32 | 3.0 | 12.0 | 0.00 | 0.00 | 0.00 | 62 | 1005.9 |
| 20260505224554 | 82 | 318 | 3.0 | 12.0 | 0.00 | 0.00 | 0.00 | 59 | 1005.5 |
| 20260505223108 | 83 | 326 | 4.0 | 10.0 | 0.00 | 0.00 | 0.00 | 56 | 1005.6 |
| 20260505221554 | 84 | 311 | 6.0 | 13.0 | 0.00 | 0.00 | 0.00 | 54 | 1005.2 |
| 20260505220059 | 86 | 311 | 3.0 | 11.0 | 0.00 | 0.00 | 0.00 | 51 | 1005.0 |
| 20260505214555 | 86 | 297 | 4.0 | 11.0 | 0.00 | 0.00 | 0.00 | 47 | 1004.9 |
| 20260505213059 | 88 | 338 | 4.0 | 13.0 | 0.00 | 0.00 | 0.00 | 46 | 1005.1 |
| 20260505211554 | 89 | 319 | 0.0 | 9.0 | 0.00 | 0.00 | 0.00 | 48 | 1004.8 |
| 20260505210124 | 90 | 291 | 0.0 | 6.0 | 0.00 | 0.00 | 0.00 | 53 | 1005.1 |
| 20260505204601 | 89 | 0 | 1.0 | 10.0 | 0.00 | 0.00 | 0.00 | 54 | 1005.2 |
| 20260505203100 | 88 | 299 | 0.0 | 9.0 | 0.00 | 0.00 | 0.00 | 57 | 1005.3 |
| 20260505201554 | 88 | 275 | 6.0 | 14.0 | 0.00 | 0.00 | 0.00 | 56 | 1005.4 |
| 20260505200054 | 88 | 0 | 0.0 | 11.0 | 0.00 | 0.00 | 0.00 | 57 | 1005.6 |
| 20260505194610 | 87 | 0 | 1.0 | 11.0 | 0.00 | 0.00 | 0.00 | 57 | 1005.7 |
| 20260505193054 | 87 | 0 | 3.0 | 13.0 | 0.00 | 0.00 | 0.00 | 59 | 1005.8 |
| 20260505191554 | 86 | 0 | 2.0 | 13.0 | 0.00 | 0.00 | 0.00 | 59 | 1005.5 |
| 20260505190053 | 85 | 192 | 0.0 | 10.0 | 0.00 | 0.00 | 0.00 | 65 | 1005.6 |
| 20260505184554 | 84 | 0 | 1.0 | 9.0 | 0.00 | 0.00 | 0.00 | 65 | 1005.6 |
| 20260505183101 | 84 | 128 | 2.0 | 11.0 | 0.00 | 0.00 | 0.00 | 65 | 1005.8 |
| 20260505181554 | 84 | 0 | 2.0 | 12.0 | 0.00 | 0.00 | 0.00 | 65 | 1005.7 |
| 20260505180054 | 83 | 0 | 3.0 | 12.0 | 0.00 | 0.00 | 0.00 | 64 | 1005.7 |
| 20260505174558 | 83 | 0 | 0.0 | 10.0 | 0.00 | 0.00 | 0.00 | 67 | 1005.7 |
| 20260505173056 | 81 | 272 | 1.0 | 16.0 | 0.00 | 0.00 | 0.00 | 68 | 1005.7 |
| 20260505171556 | 81 | 0 | 2.0 | 10.0 | 0.00 | 0.00 | 0.00 | 68 | 1005.8 |
| 20260505170058 | 80 | 203 | 2.0 | 9.0 | 0.00 | 0.00 | 0.00 | 70 | 1005.8 |
| 20260505164604 | 79 | 0 | 5.0 | 13.0 | 0.00 | 0.00 | 0.00 | 70 | 1006.0 |
| 20260505163108 | 79 | 0 | 0.0 | 10.0 | 0.00 | 0.00 | 0.00 | 73 | 1005.7 |
| 20260505161558 | 78 | 184 | 1.0 | 15.0 | 0.00 | 0.00 | 0.00 | 73 | 1005.6 |
| 20260505153114 | 77 | 158 | 3.0 | 12.0 | 0.00 | 0.00 | 0.00 | 74 | 1005.4 |
| 20260505151604 | 76 | 173 | 1.0 | 15.0 | 0.00 | 0.00 | 0.00 | 76 | 1005.3 |
| 20260505140108 | 73 | 0 | 0.0 | 7.0 | 0.00 | 0.00 | 0.00 | 81 | 1005.3 |
| 20260505124554 | 71 | 0 | 0.0 | 9.0 | 0.00 | 0.00 | 0.00 | 84 | 1005.1 |
| 20260505123106 | 71 | 207 | 0.0 | 5.0 | 0.00 | 0.00 | 0.00 | 84 | 1004.8 |
| 20260505121555 | 71 | 200 | 2.0 | 10.0 | 0.00 | 0.00 | 0.00 | 84 | 1004.5 |
| 20260505114558 | 71 | 182 | 3.0 | 10.0 | 0.00 | 0.00 | 0.00 | 84 | 1004.5 |
| 20260505113100 | 71 | 166 | 0.0 | 0.0 | 0.00 | 0.00 | 0.00 | 84 | 1004.5 |
| 20260505111559 | 71 | 0 | 0.0 | 7.0 | 0.00 | 0.00 | 0.00 | 83 | 1004.4 |
| 20260505101602 | 71 | 0 | 2.0 | 11.0 | 0.00 | 0.00 | 0.00 | 82 | 1004.5 |
| 20260505100056 | 72 | 169 | 5.0 | 14.0 | 0.00 | 0.00 | 0.00 | 81 | 1004.4 |
| 20260505094606 | 72 | 139 | 3.0 | 11.0 | 0.00 | 0.00 | 0.00 | 81 | 1004.4 |
| 20260505093055 | 72 | 213 | 3.0 | 12.0 | 0.00 | 0.00 | 0.00 | 81 | 1004.5 |
| 20260505091600 | 72 | 134 | 5.0 | 15.0 | 0.00 | 0.00 | 0.00 | 80 | 1004.7 |
| 20260505090059 | 72 | 161 | 3.0 | 11.0 | 0.00 | 0.00 | 0.00 | 80 | 1004.9 |
| 20260505084555 | 72 | 209 | 5.0 | 16.0 | 0.00 | 0.00 | 0.00 | 79 | 1004.9 |
| 20260505083056 | 73 | 199 | 4.0 | 14.0 | 0.00 | 0.00 | 0.00 | 78 | 1004.8 |
| 20260505081605 | 73 | 157 | 3.0 | 13.0 | 0.00 | 0.00 | 0.00 | 77 | 1004.9 |
| 20260505080055 | 73 | 130 | 3.0 | 11.0 | 0.00 | 0.00 | 0.00 | 76 | 1005.0 |
| 20260505074609 | 73 | 155 | 4.0 | 12.0 | 0.00 | 0.00 | 0.00 | 76 | 1005.1 |
| 20260505073057 | 73 | 191 | 4.0 | 11.0 | 0.00 | 0.00 | 0.00 | 75 | 1005.4 |
| 20260505071556 | 74 | 214 | 5.0 | 15.0 | 0.00 | 0.00 | 0.00 | 74 | 1005.6 |
| 20260505070056 | 74 | 206 | 4.0 | 13.0 | 0.00 | 0.00 | 0.00 | 73 | 1005.8 |
| 20260505064556 | 74 | 175 | 4.0 | 13.0 | 0.00 | 0.00 | 0.00 | 72 | 1006.1 |
| 20260505063058 | 75 | 233 | 4.0 | 13.0 | 0.00 | 0.00 | 0.00 | 71 | 1006.3 |
| 20260505061621 | 75 | 172 | 3.0 | 12.0 | 0.00 | 0.00 | 0.00 | 70 | 1006.3 |
| 20260505060059 | 75 | 159 | 4.0 | 11.0 | 0.00 | 0.00 | 0.00 | 70 | 1006.4 |
| 20260505054618 | 75 | 200 | 3.0 | 13.0 | 0.00 | 0.00 | 0.00 | 70 | 1006.2 |
| 20260505053055 | 75 | 167 | 4.0 | 11.0 | 0.00 | 0.00 | 0.00 | 70 | 1006.3 |
| 20260505051555 | 75 | 157 | 4.0 | 11.0 | 0.00 | 0.00 | 0.00 | 70 | 1006.4 |
| 20260505041555 | 75 | 184 | 4.0 | 13.0 | 0.00 | 0.00 | 0.00 | 69 | 1006.6 |
| 20260505040100 | 75 | 169 | 5.0 | 13.0 | 0.00 | 0.00 | 0.00 | 69 | 1006.6 |
| 20260505034556 | 75 | 142 | 3.0 | 10.0 | 0.00 | 0.00 | 0.00 | 69 | 1006.6 |
| 20260505033055 | 75 | 161 | 6.0 | 16.0 | 0.00 | 0.00 | 0.00 | 69 | 1006.6 |
| 20260505031605 | 75 | 141 | 5.0 | 13.0 | 0.00 | 0.00 | 0.00 | 68 | 1006.7 |
| 20260505030104 | 75 | 156 | 4.0 | 8.0 | 0.00 | 0.00 | 0.00 | 68 | 1006.8 |
| 20260505024611 | 75 | 165 | 4.0 | 11.0 | 0.00 | 0.00 | 0.00 | 68 | 1006.8 |
| 20260505023056 | 76 | 131 | 1.0 | 16.0 | 0.00 | 0.00 | 0.00 | 68 | 1006.8 |
| 20260505021608 | 76 | 0 | 2.0 | 12.0 | 0.00 | 0.00 | 0.00 | 67 | 1006.6 |
| 20260505020054 | 76 | 182 | 1.0 | 14.0 | 0.00 | 0.00 | 0.00 | 66 | 1006.6 |
| 20260505014558 | 76 | 163 | 4.0 | 17.0 | 0.00 | 0.00 | 0.00 | 65 | 1006.5 |
| 20260505013057 | 77 | 119 | 4.0 | 13.0 | 0.00 | 0.00 | 0.00 | 65 | 1006.6 |
| 20260505011558 | 77 | 176 | 2.0 | 16.0 | 0.00 | 0.00 | 0.00 | 64 | 1006.5 |
| 20260505010055 | 77 | 125 | 4.0 | 15.0 | 0.00 | 0.00 | 0.00 | 64 | 1006.5 |
| 20260505004559 | 78 | 167 | 6.0 | 16.0 | 0.00 | 0.00 | 0.00 | 63 | 1006.4 |
| 20260505003055 | 78 | 169 | 7.0 | 16.0 | 0.00 | 0.00 | 0.00 | 62 | 1006.5 |
| 20260505001555 | 78 | 181 | 4.0 | 16.0 | 0.00 | 0.00 | 0.00 | 62 | 1006.6 |
| 20260505000058 | 79 | 194 | 6.0 | 17.0 | 0.00 | 0.00 | 0.00 | 60 | 1006.8 |
| 20260504234556 | 79 | 173 | 7.0 | 18.0 | 0.00 | 0.00 | 0.00 | 60 | 1006.6 |
| 20260504233101 | 79 | 166 | 5.0 | 15.0 | 0.00 | 0.00 | 0.00 | 61 | 1007.0 |
| 20260504231558 | 80 | 178 | 5.0 | 15.0 | 0.00 | 0.00 | 0.00 | 60 | 1006.9 |